Date,TemperatureHighF,TemperatureAvgF,TemperatureLowF,DewpointHighF,DewpointAvgF,DewpointLowF,HumidityHigh,HumidityAvg,HumidityLow,PressureMaxIn,PressureMinIn,WindSpeedMaxMPH,WindSpeedAvgMPH,GustSpeedMaxMPH,PrecipitationSumIn
2013-7-1,87.0,78.8,68.4,63.7,60.1,57.0,77,54,39,30.01,29.91,12,5,16,0.00
2013-7-2,88.0,77.8,66.3,62.8,55.7,47.9,76,49,27,30.07,29.98,13,3,18,0.00
2013-7-3,92.0,77.4,64.6,63.5,56.1,48.2,76,51,24,30.05,29.92,6,0,9,0.00
2013-7-4,95.2,81.5,71.1,68.0,61.9,57.8,69,53,29,30.00,29.88,12,3,14,0.00
2013-7-5,96.8,83.1,70.4,68.6,63.8,60.0,79,55,33,29.99,29.84,9,2,11,0.00
2013-7-6,97.1,84.7,73.4,72.0,64.3,59.6,73,52,34,29.93,29.83,8,2,14,0.00
2013-7-7,98.0,85.8,74.8,74.0,67.8,62.0,76,57,36,29.98,29.89,9,2,12,0.00
2013-7-8,98.1,86.0,76.3,75.2,71.4,67.7,83,63,42,30.06,29.95,7,2,14,0.00
2013-7-9,99.3,87.8,77.4,74.4,68.8,63.9,82,56,33,30.10,29.94,7,2,12,0.00
2013-7-10,103.0,90.3,80.5,75.1,70.4,65.6,78,54,32,30.03,29.86,8,2,13,0.00
2013-7-11,103.1,88.0,79.3,76.1,71.1,65.8,76,59,32,29.94,29.85,8,2,24,0.00
2013-7-12,100.6,86.7,73.7,75.4,70.9,67.9,89,62,36,29.95,29.85,5,1,13,0.00
2013-7-13,98.5,88.6,76.8,71.0,66.5,59.0,75,50,34,29.98,29.84,9,2,13,0.00
2013-7-14,79.4,71.9,68.7,69.5,66.5,59.0,91,84,51,30.00,29.87,6,1,11,0.06
2013-7-15,76.5,71.9,67.6,71.0,68.0,64.9,94,88,80,30.09,29.94,5,1,11,0.03
2013-7-16,90.0,79.0,71.1,74.0,71.7,68.0,93,79,53,30.21,30.06,9,2,21,0.00
2013-7-17,92.2,78.4,70.5,76.0,71.6,68.0,95,81,51,30.21,30.11,8,2,14,0.01
2013-7-18,91.2,79.2,72.5,75.0,71.0,69.0,89,77,54,30.16,30.10,5,1,6,0.00
2013-7-19,93.4,80.0,74.9,76.0,72.6,69.0,91,79,51,30.02,29.91,8,1,12,0.18
2013-7-20,94.8,83.3,72.6,76.4,72.5,70.0,91,71,48,29.96,29.83,10,2,12,0.00
2013-7-21,96.6,83.6,73.5,77.6,73.0,70.0,91,72,44,29.91,29.81,8,2,18,0.00
2013-7-22,98.2,89.7,77.8,76.5,73.4,69.1,87,60,44,29.95,29.82,9,3,14,0.00
2013-7-23,98.6,87.4,79.1,78.8,73.7,65.0,85,65,46,29.94,29.77,10,4,13,0.00
2013-7-24,93.9,81.9,73.3,75.6,71.2,66.0,90,71,48,30.03,29.82,14,2,21,0.04
2013-7-25,95.8,83.4,72.1,76.8,71.6,68.5,89,69,48,30.03,29.94,7,1,11,0.00
2013-7-26,95.2,85.3,76.5,76.3,73.3,70.0,91,69,49,29.99,29.81,8,2,16,0.11
2013-7-27,91.0,82.1,71.4,72.0,66.9,63.2,87,62,41,29.99,29.88,10,2,15,0.00
2013-7-28,94.2,81.6,70.9,71.0,68.0,65.0,88,65,45,29.98,29.85,7,2,12,0.00
2013-7-29,97.1,87.4,77.1,75.7,72.3,62.0,86,62,40,29.98,29.88,10,4,16,0.00
2013-7-30,97.2,87.7,78.2,74.8,71.0,61.0,82,59,42,30.06,29.91,10,4,15,0.00
2013-7-31,101.0,90.8,78.4,75.8,71.4,65.0,78,55,37,30.03,29.87,7,2,15,0.00